Vail, AZ

10:40 AM MST on November 27, 2014 (GMT -0700)
Corona de Tucson | Change Station
CLOSE
Current Station
Personal Weather Station
Location: Vail, AZ
Elevation: 3438 ft
Nearby Weather Stations

Elev 3438 ft 31.95 °N, 110.76 °W | Updated 33 seconds ago

Clear
Clear
75.6 °F
Feels Like 75 °F
N
4.5
Wind Variable Wind from SE
Gusts 9.2 mph

Today
High -- | Low -- °F
--% Chance of Precip.
Yesterday
High -- | Low -- °F
Precip. -- in
7:01 AM 5:18 PM
Waxing Crescent, 31% visible
Pressure 30.17 in
Visibility 10.0 miles
Clouds Clear
Heat Index 75 °F
Dew Point 15 °F
Humidity 10%
Rainfall 0.00 in
Snow Depth Not available.
UV 3 out of 12
Pollen 3.90 out of 12
Air Quality Not available.
Flu Activity Not available.
METAR KDMA 271658Z AUTO 09006KT 10SM CLR 23/M06 A3023 RMK AO2 SLP214 T02271057 $

More Conditions Fewer Conditions

Pressure 30.17 in
Visibility 10.0 miles
Clouds Clear
Heat Index 75 °F
Dew Point 15 °F
Humidity 10%
Rainfall 0.00 in
Snow Depth Not available.
UV 3 out of 12
Pollen 3.90 out of 12
Air Quality Not available.
Flu Activity Not available.
METAR KDMA 271658Z AUTO 09006KT 10SM CLR 23/M06 A3023 RMK AO2 SLP214 T02271057 $

More Conditions Fewer Conditions

10-Day Weather Forecast

Almanac

Astronomy

Nov. 27, 2014 Rise Set
Actual Time
Civil Twilight
Nautical Twilight
Astronomical Twilight
Moon
Length of Visible Light
Length of Day
Tomorrow will be .
, % of the Moon is Illuminated

Today's Extremes

State Highs State Lows

Community

WunderPhotos

Upload Photos

1,774,061 photos uploaded!

WunderBlogs® & News

Nearby

Air Quality

  Air Quality AQ Index Pollutant
Not available.

Snow Depth

Station Depth Elevation

Earthquake Activity

City Distance Mag. Time & Date
Minimum magnitude displayed is 2.5.

Coastal Water Temperatures

Place Temperature

Nearby Weather Stations